createdAt,value
2023-03-03T00:00:02.435Z,78.78
2023-03-03T00:04:15.089Z,62.42
2023-03-03T00:08:17.982Z,68.63
2023-03-03T00:12:24.901Z,68.15
2023-03-03T00:16:32.191Z,64.60
2023-03-03T00:20:37.733Z,66.65
2023-03-03T00:24:40.553Z,73.13
2023-03-03T00:28:47.192Z,63.00
2023-03-03T00:32:53.058Z,68.13
2023-03-03T00:36:57.263Z,63.15
2023-03-03T00:41:00.095Z,69.95
2023-03-03T00:45:03.173Z,66.03
2023-03-03T00:49:22.080Z,65.05
2023-03-03T00:53:26.535Z,61.03
2023-03-03T00:57:29.616Z,70.57
2023-03-03T01:01:32.816Z,67.03
2023-03-03T01:05:37.699Z,64.68
2023-03-03T01:09:40.607Z,64.65
2023-03-03T01:13:45.527Z,63.42
2023-03-03T01:17:48.355Z,67.28
2023-03-03T01:21:52.685Z,67.43
2023-03-03T01:25:55.594Z,72.53
2023-03-03T01:29:58.512Z,66.47
2023-03-03T01:34:01.643Z,64.15
2023-03-03T01:38:05.812Z,68.72
2023-03-03T01:42:09.171Z,65.07
2023-03-03T01:46:46.150Z,78.28
2023-03-03T01:50:52.963Z,62.80
2023-03-03T01:55:02.909Z,74.97
2023-03-03T01:59:11.099Z,60.47
2023-03-03T02:03:14.355Z,77.53
2023-03-03T02:07:18.284Z,71.22
2023-03-03T02:11:24.077Z,68.88
2023-03-03T02:15:29.293Z,65.63
2023-03-03T02:19:42.246Z,73.53
2023-03-03T02:23:54.043Z,73.47
2023-03-03T02:27:59.916Z,72.82
2023-03-03T02:32:03.850Z,73.60
2023-03-03T02:36:07.340Z,69.45
2023-03-03T02:40:12.064Z,76.82
2023-03-03T02:44:18.466Z,70.13
2023-03-03T02:48:22.524Z,70.38
2023-03-03T02:52:25.346Z,70.70
2023-03-03T02:56:28.461Z,70.72
2023-03-03T03:00:33.257Z,65.13
2023-03-03T03:04:37.067Z,67.28
2023-03-03T03:08:41.009Z,67.00
2023-03-03T03:12:43.942Z,69.28
2023-03-03T03:16:49.684Z,64.63
2023-03-03T03:20:52.713Z,71.13
2023-03-03T03:24:55.985Z,68.53
2023-03-03T03:28:58.887Z,60.22
2023-03-03T03:33:03.223Z,63.70
2023-03-03T03:37:06.602Z,63.17
2023-03-03T03:41:09.551Z,64.00
2023-03-03T03:45:15.188Z,61.17
2023-03-03T03:49:21.821Z,68.38
2023-03-03T03:53:26.908Z,64.43
2023-03-03T03:57:30.114Z,62.72
2023-03-03T04:01:33.069Z,62.03
2023-03-03T04:05:37.583Z,65.35
2023-03-03T04:09:41.437Z,59.33
2023-03-03T04:13:45.554Z,67.50
2023-03-03T04:17:48.808Z,64.05
2023-03-03T04:21:53.653Z,64.28
2023-03-03T04:25:56.590Z,60.90
2023-03-03T04:29:59.913Z,60.92
2023-03-03T04:34:03.082Z,71.95
2023-03-03T04:38:07.953Z,69.85
2023-03-03T04:42:13.248Z,65.07
2023-03-03T04:46:16.657Z,70.00
2023-03-03T04:50:20.845Z,68.78
2023-03-03T04:54:25.155Z,67.95
2023-03-03T04:58:28.044Z,79.82
2023-03-03T05:02:32.078Z,76.22
2023-03-03T05:06:35.662Z,87.53
2023-03-03T05:10:39.971Z,71.78
2023-03-03T05:14:42.882Z,77.63
2023-03-03T05:18:46.593Z,75.03
2023-03-03T05:22:49.412Z,75.25
2023-03-03T05:26:53.775Z,74.13
2023-03-03T05:30:56.589Z,85.18
2023-03-03T05:34:59.374Z,88.32
2023-03-03T05:39:02.174Z,76.57
2023-03-03T05:43:07.106Z,76.38
2023-03-03T05:47:09.927Z,82.20
2023-03-03T05:51:12.780Z,78.72
2023-03-03T05:55:15.601Z,77.70
2023-03-03T05:59:20.657Z,72.75
2023-03-03T06:03:23.551Z,76.97
2023-03-03T06:07:26.319Z,82.18
2023-03-03T06:11:29.205Z,73.85
2023-03-03T06:15:33.371Z,72.38
2023-03-03T06:19:37.093Z,80.20
2023-03-03T06:23:39.870Z,77.65
2023-03-03T06:27:42.652Z,70.63
2023-03-03T06:31:46.851Z,81.90
2023-03-03T06:35:51.410Z,77.85
2023-03-03T06:39:54.309Z,77.47
2023-03-03T06:43:58.337Z,71.82
2023-03-03T06:48:03.037Z,76.78
2023-03-03T06:52:13.074Z,76.97
2023-03-03T06:56:16.136Z,78.75
2023-03-03T07:00:21.260Z,75.95
2023-03-03T07:04:30.965Z,75.55
2023-03-03T07:08:33.974Z,74.93
2023-03-03T07:12:36.904Z,78.28
2023-03-03T07:16:39.724Z,80.25
2023-03-03T07:20:44.480Z,76.55
2023-03-03T07:24:52.493Z,80.80
2023-03-03T07:28:57.551Z,76.72
2023-03-03T07:33:00.611Z,73.07
2023-03-03T07:37:11.483Z,76.05
2023-03-03T07:41:20.831Z,74.80
2023-03-03T07:45:27.695Z,76.35
2023-03-03T07:49:35.901Z,73.07
2023-03-03T07:53:40.140Z,79.80
2023-03-03T07:57:43.083Z,79.35
2023-03-03T08:01:49.715Z,80.93
2023-03-03T08:05:53.164Z,71.55
2023-03-03T08:10:00.741Z,79.30
2023-03-03T08:14:10.417Z,73.32
2023-03-03T08:18:22.622Z,81.50
2023-03-03T08:22:32.385Z,74.32
2023-03-03T08:26:36.729Z,75.35
2023-03-03T08:30:39.760Z,77.22
2023-03-03T08:34:42.630Z,77.20
2023-03-03T08:38:45.473Z,69.13
2023-03-03T08:42:49.960Z,74.22
2023-03-03T08:46:52.783Z,77.65
2023-03-03T08:50:55.827Z,76.45
2023-03-03T08:54:58.654Z,69.43
2023-03-03T08:59:03.415Z,64.78
2023-03-03T09:03:07.125Z,68.00
2023-03-03T09:07:10.140Z,66.10
2023-03-03T09:11:13.777Z,68.10
2023-03-03T09:15:22.316Z,68.63
2023-03-03T09:19:29.427Z,80.40
2023-03-03T09:23:35.924Z,62.97
2023-03-03T09:31:46.080Z,61.20
2023-03-03T09:35:52.800Z,64.65
2023-03-03T09:39:57.413Z,59.92
2023-03-03T09:44:32.481Z,65.07
2023-03-03T09:48:50.124Z,65.63
2023-03-03T09:52:59.778Z,63.75
2023-03-03T09:57:09.856Z,63.88
2023-03-03T10:01:36.270Z,61.90
2023-03-03T10:05:48.977Z,71.07
2023-03-03T10:10:06.815Z,61.70
2023-03-03T10:14:22.025Z,63.60
2023-03-03T10:18:33.574Z,69.43
2023-03-03T10:22:48.994Z,65.88
2023-03-03T10:27:13.522Z,68.35
2023-03-03T10:31:28.414Z,69.93
2023-03-03T10:35:40.950Z,64.35
2023-03-03T10:40:02.762Z,68.45
2023-03-03T10:44:28.539Z,62.70
2023-03-03T10:48:52.104Z,70.13
2023-03-03T10:53:10.172Z,68.15
2023-03-03T10:57:22.888Z,76.68
2023-03-03T11:01:37.128Z,62.58
2023-03-03T11:05:43.963Z,64.50
2023-03-03T11:10:14.967Z,62.08
2023-03-03T11:14:24.955Z,70.30
2023-03-03T11:18:36.677Z,64.47
2023-03-03T11:22:47.610Z,61.08
2023-03-03T11:27:03.716Z,62.97
2023-03-03T11:31:19.701Z,70.32
2023-03-03T11:35:27.698Z,65.25
2023-03-03T11:39:30.608Z,71.28
2023-03-03T11:43:39.808Z,68.78
2023-03-03T11:47:52.221Z,70.80
2023-03-03T11:52:05.988Z,70.20
2023-03-03T11:56:21.900Z,60.65
2023-03-03T12:00:32.278Z,59.33
2023-03-03T12:04:41.911Z,65.10
2023-03-03T12:09:11.769Z,60.42
2023-03-03T12:13:22.046Z,63.90
2023-03-03T12:17:38.022Z,60.20
2023-03-03T12:21:58.091Z,60.93
2023-03-03T12:26:07.116Z,63.97
2023-03-03T12:30:21.366Z,66.82
2023-03-03T12:34:33.683Z,59.25
2023-03-03T12:38:45.191Z,58.83
2023-03-03T12:42:58.675Z,59.55
2023-03-03T12:47:07.498Z,63.38
2023-03-03T12:51:19.923Z,62.80
2023-03-03T12:55:33.928Z,64.93
2023-03-03T12:59:44.033Z,60.17
2023-03-03T13:03:56.701Z,60.30
2023-03-03T13:08:15.172Z,61.47
2023-03-03T13:12:39.311Z,63.40
2023-03-03T13:16:46.830Z,54.00
2023-03-03T13:20:54.928Z,52.03
2023-03-03T13:25:04.888Z,57.33
2023-03-03T13:29:20.206Z,52.88
2023-03-03T13:33:28.011Z,64.95
2023-03-03T13:37:34.169Z,64.30
2023-03-03T13:41:45.378Z,57.20
2023-03-03T13:46:06.523Z,63.85
2023-03-03T13:50:23.398Z,61.35
2023-03-03T13:54:51.921Z,60.63
2023-03-03T13:59:04.564Z,61.42
2023-03-03T14:03:27.102Z,59.50
2023-03-03T14:07:35.162Z,57.63
2023-03-03T14:11:46.808Z,64.53
2023-03-03T14:15:55.809Z,56.20
2023-03-03T14:20:12.756Z,57.13
2023-03-03T14:24:18.511Z,56.85
2023-03-03T14:28:23.176Z,53.67
2023-03-03T14:32:43.225Z,58.22
2023-03-03T14:36:49.262Z,52.67
2023-03-03T14:41:07.396Z,44.67
2023-03-03T14:45:33.588Z,51.85
2023-03-03T14:49:38.416Z,56.67
2023-03-03T14:53:45.424Z,53.83
2023-03-03T14:57:48.621Z,48.53
2023-03-03T15:01:59.318Z,49.83
2023-03-03T15:06:02.128Z,51.35
2023-03-03T15:10:07.784Z,50.92
2023-03-03T15:14:15.202Z,58.93
2023-03-03T15:18:18.489Z,53.28
2023-03-03T15:22:29.235Z,50.33
2023-03-03T15:26:44.235Z,50.78
2023-03-03T15:30:54.343Z,59.17
2023-03-03T15:35:05.851Z,55.88
2023-03-03T15:39:22.089Z,58.50
2023-03-03T15:43:29.442Z,61.35
2023-03-03T15:47:45.796Z,57.83
2023-03-03T15:52:03.830Z,61.53
2023-03-03T15:56:21.708Z,60.15
2023-03-03T16:00:38.751Z,62.10
2023-03-03T16:04:48.876Z,60.67
2023-03-03T16:08:59.295Z,58.20
2023-03-03T16:13:20.599Z,60.70
2023-03-03T16:17:32.521Z,66.93
2023-03-03T16:21:53.501Z,64.57
2023-03-03T16:26:06.516Z,65.60
2023-03-03T16:30:27.433Z,58.25
2023-03-03T16:34:38.583Z,56.30
2023-03-03T16:38:44.889Z,68.20
2023-03-03T16:42:52.533Z,80.50
2023-03-03T16:47:07.366Z,79.15
2023-03-03T16:51:29.293Z,71.43
2023-03-03T16:55:36.637Z,64.93
2023-03-03T17:00:05.377Z,68.57
2023-03-03T17:04:16.004Z,69.68
2023-03-03T17:08:41.815Z,67.55
2023-03-03T17:13:10.624Z,70.78
2023-03-03T17:17:26.968Z,68.65
2023-03-03T17:21:40.348Z,68.07
2023-03-03T17:25:51.105Z,83.28
2023-03-03T17:30:04.181Z,75.78
2023-03-03T17:34:19.011Z,89.78
2023-03-03T17:38:32.737Z,75.68
2023-03-03T17:42:44.388Z,76.72
2023-03-03T17:46:51.434Z,91.63
2023-03-03T17:51:09.484Z,88.68
2023-03-03T17:55:36.730Z,108.05
2023-03-03T17:59:53.128Z,95.85
2023-03-03T18:04:35.366Z,86.40
2023-03-03T18:09:19.690Z,100.18
2023-03-03T18:13:41.964Z,99.28
2023-03-03T18:18:05.915Z,106.03
2023-03-03T18:22:14.006Z,95.80
2023-03-03T18:26:40.363Z,94.18
2023-03-03T18:30:59.330Z,103.63
2023-03-03T18:35:25.702Z,85.30
2023-03-03T18:39:46.572Z,87.18
2023-03-03T18:43:56.275Z,84.28
2023-03-03T18:48:06.049Z,87.50
2023-03-03T18:52:19.348Z,77.85
2023-03-03T18:56:44.908Z,82.03
2023-03-03T19:00:50.308Z,82.90
2023-03-03T19:04:56.018Z,87.20
2023-03-03T19:09:00.308Z,84.88
2023-03-03T19:13:03.180Z,81.00
2023-03-03T19:17:39.340Z,84.13
2023-03-03T19:21:43.944Z,90.27
2023-03-03T19:26:21.424Z,85.90
2023-03-03T19:30:48.755Z,97.72
2023-03-03T19:34:58.826Z,93.78
2023-03-03T19:39:23.522Z,97.28
2023-03-03T19:43:38.258Z,97.70
2023-03-03T19:47:47.311Z,101.07
2023-03-03T19:52:00.276Z,100.30
2023-03-03T19:56:16.889Z,92.88
2023-03-03T20:04:40.606Z,104.57
2023-03-03T20:08:54.371Z,92.15
2023-03-03T20:13:08.473Z,89.00
2023-03-03T20:17:58.542Z,93.40
2023-03-03T20:22:09.586Z,89.35
2023-03-03T20:26:17.786Z,85.97
2023-03-03T20:30:46.585Z,97.72
2023-03-03T20:35:03.206Z,106.28
2023-03-03T20:43:22.748Z,97.75
2023-03-03T20:47:38.156Z,100.10
2023-03-03T20:51:46.515Z,107.90
2023-03-03T20:55:59.622Z,98.30
2023-03-03T21:00:07.658Z,99.22
2023-03-03T21:04:18.779Z,98.95
2023-03-03T21:08:41.230Z,104.55
2023-03-03T21:12:44.236Z,105.28
2023-03-03T21:16:47.116Z,108.00
2023-03-03T21:20:49.922Z,98.95
2023-03-03T21:24:55.908Z,101.75
2023-03-03T21:29:03.689Z,106.78
2023-03-03T21:33:06.491Z,114.97
2023-03-03T21:37:10.722Z,112.65
2023-03-03T21:41:16.679Z,93.55
2023-03-03T21:45:20.403Z,109.05
2023-03-03T21:49:23.245Z,106.47
2023-03-03T21:53:26.623Z,108.97
2023-03-03T21:57:30.848Z,115.00
2023-03-03T22:01:33.746Z,105.95
2023-03-03T22:05:37.182Z,95.22
2023-03-03T22:09:40.161Z,103.88
2023-03-03T22:13:44.306Z,99.28
2023-03-03T22:17:47.166Z,110.15
2023-03-03T22:21:50.562Z,106.15
2023-03-03T22:25:53.335Z,120.82
2023-03-03T22:29:57.509Z,123.57
2023-03-03T22:34:00.479Z,125.97
2023-03-03T22:38:03.438Z,109.88
2023-03-03T22:42:06.531Z,113.57
2023-03-03T22:46:10.888Z,118.05
2023-03-03T22:50:16.815Z,110.85
2023-03-03T22:54:19.551Z,110.57
2023-03-03T22:58:25.407Z,120.28
2023-03-03T23:02:29.793Z,105.15
2023-03-03T23:06:32.562Z,115.13
2023-03-03T23:10:35.674Z,108.38
2023-03-03T23:14:38.419Z,123.43
2023-03-03T23:18:42.665Z,124.57
2023-03-03T23:22:47.121Z,134.35
2023-03-03T23:26:51.762Z,119.63
2023-03-03T23:30:54.578Z,110.70
2023-03-03T23:34:58.703Z,132.32
2023-03-03T23:39:01.463Z,117.63
2023-03-03T23:43:04.205Z,115.78
2023-03-03T23:47:07.555Z,117.03
2023-03-03T23:51:11.627Z,99.72
2023-03-03T23:55:14.347Z,117.03
2023-03-03T23:59:17.207Z,112.93
